Time;durP1;ratioP1;P1;durP2;ratioP2;P2;SDS_P1;SDS_P2;PMS_P1;PMS_P2;Temp;Humidity;BMP_temperature;BMP_pressure;BME280_temperature;BME280_humidity;BME280_pressure;Samples;Min_cycle;Max_cycle;Signal;HPM_P1;HPM_P2
2022/05/17 00:01:19;;;;;;;0.40;0.30;;;;;;;15.16;100.00;100662.03;5015134;28;20456;-54
2022/05/17 00:03:47;;;;;;;0.60;0.53;;;;;;;14.92;100.00;100660.38;5015152;28;20476;-54
2022/05/17 00:06:15;;;;;;;0.40;0.37;;;;;;;14.98;100.00;100658.34;4997871;28;20444;-53
2022/05/17 00:08:41;;;;;;;2.63;1.63;;;;;;;14.96;100.00;100653.97;5014947;28;20464;-54
2022/05/17 00:11:11;;;;;;;0.70;0.67;;;;;;;14.93;100.00;100660.31;5014960;28;20444;-54
2022/05/17 00:13:38;;;;;;;0.50;0.50;;;;;;;14.71;100.00;100659.44;5014751;28;20473;-54
2022/05/17 00:16:05;;;;;;;0.40;0.20;;;;;;;14.68;100.00;100662.25;5012944;28;20527;-54
2022/05/17 00:18:33;;;;;;;0.40;0.20;;;;;;;14.53;100.00;100663.72;5012813;28;20452;-54
2022/05/17 00:21:00;;;;;;;0.67;0.67;;;;;;;14.48;100.00;100658.53;5014977;28;20456;-54
2022/05/17 00:23:27;;;;;;;0.50;0.40;;;;;;;14.45;100.00;100661.31;5014586;28;20526;-54
2022/05/17 00:25:55;;;;;;;0.40;0.20;;;;;;;14.62;100.00;100657.13;5014693;28;20456;-54
2022/05/17 00:28:23;;;;;;;0.80;0.80;;;;;;;14.85;100.00;100665.09;5014572;28;21008;-54
2022/05/17 00:30:50;;;;;;;0.40;0.20;;;;;;;14.70;100.00;100668.41;5013655;28;20837;-54
2022/05/17 00:33:17;;;;;;;0.40;0.20;;;;;;;14.78;100.00;100664.47;5014585;28;20488;-54
2022/05/17 00:35:45;;;;;;;0.40;0.30;;;;;;;14.63;100.00;100665.06;5014696;28;20602;-54
2022/05/17 00:38:12;;;;;;;1.27;1.27;;;;;;;14.69;100.00;100667.53;5013862;28;21002;-54
2022/05/17 00:40:40;;;;;;;0.87;0.87;;;;;;;14.49;100.00;100662.06;5014191;28;20827;-54
2022/05/17 00:43:13;;;;;;;2.00;1.80;;;;;;;14.40;100.00;100668.63;5014722;28;20482;-54
2022/05/17 00:45:47;;;;;;;0.40;0.30;;;;;;;14.37;100.00;100665.19;5014691;28;20844;-54
2022/05/17 00:48:16;;;;;;;0.50;0.40;;;;;;;14.36;100.00;100666.97;5014683;28;20448;-54
2022/05/17 00:50:47;;;;;;;0.80;0.60;;;;;;;14.53;100.00;100663.72;5014438;28;20523;-54
2022/05/17 00:53:21;;;;;;;3.70;0.57;;;;;;;14.41;100.00;100658.81;5014248;28;20449;-54
2022/05/17 00:56:07;;;;;;;0.50;0.40;;;;;;;14.54;100.00;100656.56;5014417;28;20489;-54
2022/05/17 00:58:40;;;;;;;0.40;0.30;;;;;;;14.31;100.00;100655.59;5014244;28;20499;-54
2022/05/17 01:01:14;;;;;;;1.33;0.67;;;;;;;14.35;100.00;100653.66;5014274;28;20507;-54
2022/05/17 01:04:00;;;;;;;0.50;0.50;;;;;;;14.55;100.00;100659.19;5013944;28;20919;-54
2022/05/17 01:06:42;;;;;;;0.40;0.20;;;;;;;14.44;99.71;100658.72;5014306;28;20444;-54
2022/05/17 01:09:11;;;;;;;0.70;0.70;;;;;;;14.18;100.00;100657.00;4997251;28;20456;-54
2022/05/17 01:11:37;;;;;;;0.40;0.20;;;;;;;14.03;100.00;100653.09;5013929;28;20453;-54
2022/05/17 01:16:50;;;;;;;0.40;0.40;;;;;;;14.00;100.00;100657.69;5009195;28;20856;-54
2022/05/17 01:19:16;;;;;;;0.40;0.20;;;;;;;13.82;100.00;100661.88;5013979;28;20950;-54
2022/05/17 01:21:44;;;;;;;1.13;1.03;;;;;;;14.08;100.00;100652.91;5013750;28;20445;-54
2022/05/17 01:24:11;;;;;;;0.40;0.40;;;;;;;13.86;100.00;100652.84;5013451;28;20511;-54
2022/05/17 01:26:42;;;;;;;0.40;0.20;;;;;;;13.74;100.00;100662.16;5013237;28;20444;-54
2022/05/17 01:29:11;;;;;;;0.40;0.30;;;;;;;13.88;100.00;100656.31;5013708;28;20506;-54
2022/05/17 01:31:38;;;;;;;0.40;0.20;;;;;;;14.21;100.00;100660.41;5013735;28;20449;-54
2022/05/17 01:34:10;;;;;;;1.03;1.03;;;;;;;13.98;100.00;100667.53;4995940;28;21080;-54
2022/05/17 01:36:39;;;;;;;0.40;0.20;;;;;;;13.98;100.00;100665.75;5013521;28;20492;-54
2022/05/17 01:39:07;;;;;;;0.50;0.40;;;;;;;13.97;100.00;100668.47;5013322;28;20499;-54
2022/05/17 01:41:34;;;;;;;0.40;0.30;;;;;;;13.85;100.00;100670.69;5013125;28;20460;-54
2022/05/17 01:44:02;;;;;;;0.40;0.20;;;;;;;13.86;100.00;100660.84;5013217;28;20506;-54
2022/05/17 01:46:28;;;;;;;0.40;0.20;;;;;;;13.77;100.00;100664.72;5013516;28;20518;-54
2022/05/17 01:48:55;;;;;;;0.40;0.20;;;;;;;13.82;100.00;100664.53;5013342;28;20464;-54
2022/05/17 01:51:22;;;;;;;0.40;0.30;;;;;;;13.64;100.00;100663.41;5013218;28;20514;-54
2022/05/17 01:53:48;;;;;;;0.40;0.40;;;;;;;13.55;100.00;100664.59;5013109;28;20480;-54
2022/05/17 01:56:16;;;;;;;2.97;0.63;;;;;;;13.48;100.00;100660.41;5013097;28;20492;-54
2022/05/17 01:58:43;;;;;;;0.40;0.30;;;;;;;13.58;100.00;100663.63;5013131;28;20503;-54
2022/05/17 02:01:10;;;;;;;0.40;0.20;;;;;;;13.64;100.00;100666.09;5013343;28;20449;-54
2022/05/17 02:03:38;;;;;;;0.40;0.20;;;;;;;13.84;100.00;100662.69;5013021;28;20472;-54
2022/05/17 02:06:05;;;;;;;0.70;0.70;;;;;;;13.64;100.00;100664.28;5012889;28;20476;-54
2022/05/17 02:08:31;;;;;;;0.40;0.20;;;;;;;13.54;100.00;100660.19;5012842;28;20507;-54
2022/05/17 02:10:58;;;;;;;0.50;0.50;;;;;;;13.71;99.29;100667.63;5013069;28;21201;-54
2022/05/17 02:13:25;;;;;;;0.60;0.40;;;;;;;13.54;100.00;100660.19;5012754;28;20819;-54
2022/05/17 02:15:51;;;;;;;0.40;0.20;;;;;;;13.43;100.00;100659.69;5012618;28;20480;-54
2022/05/17 02:18:18;;;;;;;1.97;1.70;;;;;;;13.29;100.00;100657.50;5008931;28;20449;-54
2022/05/17 02:20:45;;;;;;;0.97;0.93;;;;;;;13.25;100.00;100661.19;5012868;28;20506;-54
2022/05/17 02:23:11;;;;;;;0.40;0.20;;;;;;;13.10;100.00;100653.66;5012780;28;20498;-53
2022/05/17 02:25:38;;;;;;;0.40;0.20;;;;;;;13.07;100.00;100661.75;5012763;28;20526;-54
2022/05/17 02:28:07;;;;;;;0.40;0.20;;;;;;;13.08;100.00;100660.84;5012686;28;20453;-53
2022/05/17 02:30:33;;;;;;;0.40;0.40;;;;;;;12.94;100.00;100663.09;5012760;28;20483;-53
2022/05/17 02:33:00;;;;;;;0.60;0.53;;;;;;;13.12;100.00;100659.81;5012663;28;20522;-54
2022/05/17 02:35:26;;;;;;;0.60;0.60;;;;;;;13.14;100.00;100668.63;5012486;28;20504;-54
2022/05/17 02:37:53;;;;;;;0.30;0.20;;;;;;;12.92;100.00;100668.47;5012374;28;21000;-54
2022/05/17 02:40:20;;;;;;;0.40;0.20;;;;;;;12.74;100.00;100669.03;5012527;28;20461;-53
2022/05/17 02:42:46;;;;;;;0.50;0.40;;;;;;;12.60;100.00;100673.94;5012643;28;20499;-54
2022/05/17 02:45:13;;;;;;;0.40;0.20;;;;;;;12.67;100.00;100672.84;5012433;28;20475;-53
2022/05/17 02:47:39;;;;;;;0.40;0.20;;;;;;;12.65;100.00;100682.69;5012296;28;20866;-53
2022/05/17 02:50:09;;;;;;;4.10;0.83;;;;;;;12.87;100.00;100685.53;5012739;28;20460;-54
2022/05/17 02:52:37;;;;;;;0.57;0.57;;;;;;;12.87;100.00;100686.41;5011757;28;20475;-53
2022/05/17 02:55:05;;;;;;;0.40;0.23;;;;;;;13.14;100.00;100687.31;5012238;28;20843;-53
2022/05/17 02:57:33;;;;;;;0.40;0.30;;;;;;;12.99;100.00;100687.81;5012317;28;20487;-53
2022/05/17 03:00:00;;;;;;;0.50;0.40;;;;;;;12.96;100.00;100685.25;5012460;28;20515;-53
2022/05/17 03:02:27;;;;;;;0.40;0.20;;;;;;;12.85;100.00;100695.38;5012264;28;20453;-54
2022/05/17 03:04:54;;;;;;;0.40;0.20;;;;;;;12.92;100.00;100695.16;5012440;28;20491;-54
2022/05/17 03:07:21;;;;;;;0.50;0.50;;;;;;;12.77;100.00;100695.63;5012245;28;20457;-54
2022/05/17 03:09:47;;;;;;;0.30;0.20;;;;;;;12.81;100.00;100701.75;5012054;28;20479;-54
2022/05/17 03:12:14;;;;;;;0.40;0.30;;;;;;;12.46;100.00;100703.69;5012260;28;20532;-53
2022/05/17 03:14:41;;;;;;;1.17;1.13;;;;;;;12.44;100.00;100706.38;5012082;28;20469;-54
2022/05/17 03:17:16;;;;;;;0.33;0.20;;;;;;;12.48;100.00;100707.19;5007281;28;20516;-53
2022/05/17 03:19:43;;;;;;;0.40;0.40;;;;;;;12.34;100.00;100696.94;5012352;28;20488;-54
2022/05/17 03:22:10;;;;;;;0.40;0.30;;;;;;;12.49;100.00;100705.41;5012414;28;20453;-53
2022/05/17 03:24:37;;;;;;;0.40;0.20;;;;;;;12.48;100.00;100709.88;5011745;28;20848;-54
2022/05/17 03:27:24;;;;;;;0.40;0.20;;;;;;;12.62;100.00;100713.00;5011823;28;20543;-54
2022/05/17 03:29:51;;;;;;;0.50;0.40;;;;;;;12.65;100.00;100712.03;5012314;28;20507;-53
2022/05/17 03:32:17;;;;;;;0.30;0.20;;;;;;;12.42;100.00;100710.03;5012229;28;20506;-53
2022/05/17 03:34:47;;;;;;;0.60;0.50;;;;;;;12.68;100.00;100720.78;5012232;28;20518;-53
2022/05/17 03:37:14;;;;;;;0.40;0.40;;;;;;;12.59;100.00;100715.72;5013052;28;20496;-51
2022/05/17 03:39:40;;;;;;;0.40;0.20;;;;;;;12.48;100.00;100712.53;5011956;28;20510;-51
2022/05/17 03:42:11;;;;;;;0.40;0.30;;;;;;;12.35;100.00;100714.69;5012184;28;20448;-52
2022/05/17 03:44:37;;;;;;;0.40;0.20;;;;;;;12.28;100.00;100714.88;5012246;28;20872;-52
2022/05/17 03:47:06;;;;;;;0.87;0.73;;;;;;;12.46;100.00;100712.53;5012090;28;20511;-51
2022/05/17 03:49:35;;;;;;;0.40;0.20;;;;;;;12.36;100.00;100712.88;5012120;28;20453;-52
2022/05/17 03:52:02;;;;;;;0.97;0.97;;;;;;;12.49;100.00;100716.94;5011512;28;20448;-51
2022/05/17 03:54:29;;;;;;;1.27;0.60;;;;;;;12.30;100.00;100718.38;5011420;28;20899;-52
2022/05/17 03:56:55;;;;;;;0.30;0.20;;;;;;;12.49;100.00;100716.94;5012074;28;21011;-51
2022/05/17 03:59:22;;;;;;;0.40;0.20;;;;;;;12.64;100.00;100719.16;4998926;28;20526;-51
2022/05/17 04:01:49;;;;;;;0.67;0.37;;;;;;;12.36;100.00;100715.56;5011854;28;20448;-52
2022/05/17 04:04:16;;;;;;;0.63;0.63;;;;;;;12.49;100.00;100716.06;5012765;28;20468;-52
2022/05/17 04:06:43;;;;;;;0.50;0.40;;;;;;;12.62;100.00;100722.78;5015281;28;20896;-52
2022/05/17 04:09:10;;;;;;;0.30;0.20;;;;;;;12.72;100.00;100725.09;5015356;28;20517;-51
2022/05/17 04:11:37;;;;;;;0.40;0.40;;;;;;;12.94;100.00;100717.31;4997304;28;20448;-51
2022/05/17 04:14:04;;;;;;;0.40;0.30;;;;;;;12.72;100.00;100729.56;5003082;28;20526;-52
2022/05/17 04:16:33;;;;;;;0.77;0.77;;;;;;;12.81;100.00;100721.28;5010654;28;20500;-52
2022/05/17 04:19:00;;;;;;;0.30;0.20;;;;;;;12.49;100.00;100719.59;4997709;28;20453;-51
2022/05/17 04:21:29;;;;;;;0.53;0.53;;;;;;;12.69;100.00;100733.22;5014920;28;20452;-52
2022/05/17 04:23:56;;;;;;;0.30;0.20;;;;;;;12.82;100.00;100728.38;5014629;28;20852;-52
2022/05/17 04:26:24;;;;;;;0.40;0.40;;;;;;;12.96;100.00;100728.81;5014646;28;21016;-51
2022/05/17 04:28:51;;;;;;;0.70;0.70;;;;;;;13.15;100.00;100721.09;5012035;28;20477;-51
2022/05/17 04:31:18;;;;;;;0.40;0.30;;;;;;;13.09;100.00;100734.66;5003545;28;20485;-51
2022/05/17 04:33:45;;;;;;;0.70;0.70;;;;;;;13.06;100.00;100740.09;5004904;28;20523;-52
2022/05/17 04:36:12;;;;;;;1.00;0.40;;;;;;;13.09;100.00;100741.78;5006411;28;20558;-52
2022/05/17 04:38:39;;;;;;;0.40;0.20;;;;;;;13.18;100.00;100739.75;5003916;28;20519;-52
2022/05/17 04:41:05;;;;;;;0.30;0.20;;;;;;;13.70;100.00;100737.13;5009850;28;20583;-52
2022/05/17 04:43:32;;;;;;;0.60;0.60;;;;;;;14.46;100.00;100735.28;5014769;28;20469;-53
2022/05/17 04:45:59;;;;;;;0.40;0.30;;;;;;;15.13;96.50;100742.50;5005503;28;20813;-52
2022/05/17 04:48:26;;;;;;;0.40;0.30;;;;;;;15.80;92.69;100741.56;5004344;28;20445;-52
2022/05/17 04:50:53;;;;;;;0.50;0.50;;;;;;;16.12;90.68;100750.88;5004645;28;20491;-52
2022/05/17 04:53:26;;;;;;;0.40;0.30;;;;;;;16.80;88.95;100755.84;5005841;28;20530;-52
2022/05/17 04:55:52;;;;;;;5.03;2.00;;;;;;;17.20;87.09;100753.06;5014351;28;20519;-52
2022/05/17 04:58:19;;;;;;;0.50;0.50;;;;;;;17.30;86.70;100760.63;5014262;28;20457;-52
2022/05/17 05:00:46;;;;;;;0.40;0.30;;;;;;;17.41;85.63;100752.91;5014020;28;20515;-53
2022/05/17 05:03:14;;;;;;;0.40;0.20;;;;;;;17.64;86.07;100756.25;5014208;28;20510;-52
2022/05/17 05:05:40;;;;;;;0.40;0.30;;;;;;;18.11;85.00;100758.38;5014205;28;20449;-53
2022/05/17 05:08:07;;;;;;;0.40;0.20;;;;;;;18.43;83.98;100759.34;5014241;28;20510;-52
2022/05/17 05:10:34;;;;;;;0.40;0.20;;;;;;;18.35;84.43;100759.75;5013869;28;20852;-52
2022/05/17 05:13:00;;;;;;;0.40;0.30;;;;;;;18.30;84.99;100759.13;5014068;28;20448;-52
2022/05/17 05:15:27;;;;;;;1.03;1.03;;;;;;;18.61;83.99;100758.34;5013575;28;20515;-52
2022/05/17 05:17:53;;;;;;;0.47;0.40;;;;;;;18.69;84.09;100761.53;5008364;28;20496;-52
2022/05/17 05:20:20;;;;;;;1.13;0.50;;;;;;;18.97;83.88;100763.56;5014044;28;20460;-52
2022/05/17 05:22:47;;;;;;;0.50;0.30;;;;;;;19.05;82.48;100764.03;5013932;28;20448;-52
2022/05/17 05:25:15;;;;;;;0.40;0.30;;;;;;;19.38;83.99;100763.06;5013822;28;20472;-52
2022/05/17 05:27:43;;;;;;;0.90;0.90;;;;;;;20.38;80.96;100764.28;5013853;28;20487;-52
2022/05/17 05:30:13;;;;;;;0.60;0.50;;;;;;;21.05;79.00;100767.31;5013873;28;20452;-52
2022/05/17 05:32:39;;;;;;;0.90;0.90;;;;;;;19.88;82.43;100768.25;5013902;28;20876;-52
2022/05/17 05:35:07;;;;;;;1.03;1.03;;;;;;;20.46;79.83;100772.81;5013444;28;20476;-52
2022/05/17 05:37:33;;;;;;;0.87;0.50;;;;;;;20.15;81.41;100779.22;5013623;28;20519;-52
2022/05/17 05:40:00;;;;;;;1.90;1.80;;;;;;;20.11;80.86;100783.91;5013574;28;20869;-53
2022/05/17 05:42:27;;;;;;;0.40;0.20;;;;;;;20.13;81.22;100778.41;5013719;28;20453;-52
2022/05/17 05:44:54;;;;;;;0.50;0.40;;;;;;;20.15;81.25;100770.22;5002492;28;20876;-52
2022/05/17 05:47:21;;;;;;;0.57;0.50;;;;;;;20.13;81.67;100773.00;5000993;28;20445;-52
2022/05/17 05:49:47;;;;;;;0.73;0.63;;;;;;;19.62;83.27;100775.16;5009218;28;20449;-52
2022/05/17 05:52:15;;;;;;;1.37;1.30;;;;;;;19.73;82.91;100769.97;5013546;28;20535;-53
2022/05/17 05:54:42;;;;;;;0.97;0.97;;;;;;;19.68;83.54;100772.09;5013301;28;20476;-52
2022/05/17 05:57:08;;;;;;;0.53;0.50;;;;;;;20.06;82.68;100775.22;5013142;28;20558;-53
2022/05/17 05:59:39;;;;;;;2.50;1.00;;;;;;;20.23;82.56;100778.72;5007754;28;20452;-52
2022/05/17 06:02:07;;;;;;;0.40;0.20;;;;;;;20.09;83.57;100774.16;5012961;28;20449;-52
2022/05/17 06:04:34;;;;;;;0.40;0.20;;;;;;;20.14;82.79;100774.75;5013106;28;20472;-53
2022/05/17 06:07:01;;;;;;;0.40;0.30;;;;;;;20.15;82.87;100783.72;5013068;28;20444;-52
2022/05/17 06:09:28;;;;;;;0.50;0.43;;;;;;;20.55;81.50;100791.16;5012584;28;20503;-54
2022/05/17 06:11:54;;;;;;;0.40;0.20;;;;;;;19.79;84.00;100788.53;5009447;28;20848;-53
2022/05/17 06:14:21;;;;;;;0.50;0.33;;;;;;;20.00;84.11;100790.91;5003502;28;20473;-53
2022/05/17 06:16:49;;;;;;;3.07;1.97;;;;;;;20.01;83.36;100790.84;5008315;28;20489;-52
2022/05/17 06:19:16;;;;;;;0.40;0.30;;;;;;;20.15;83.50;100787.31;5012852;28;20597;-53
2022/05/17 06:21:43;;;;;;;8.90;1.17;;;;;;;20.06;83.83;100793.25;5012910;28;20510;-55
2022/05/17 06:24:10;;;;;;;1.47;1.47;;;;;;;20.12;83.40;100784.78;5012788;28;20480;-52
2022/05/17 06:26:37;;;;;;;0.40;0.30;;;;;;;20.14;83.48;100788.25;5009379;28;20935;-53
2022/05/17 06:29:04;;;;;;;0.50;0.30;;;;;;;20.17;84.15;100796.19;5003630;28;20449;-52
2022/05/17 06:31:31;;;;;;;0.50;0.40;;;;;;;20.38;82.99;100791.28;5002591;28;20558;-53
2022/05/17 06:33:58;;;;;;;0.40;0.20;;;;;;;20.22;83.42;100785.97;5003671;28;21014;-53
2022/05/17 06:36:24;;;;;;;0.57;0.53;;;;;;;20.54;82.44;100786.72;5012231;28;20500;-53
2022/05/17 06:39:11;;;;;;;0.70;0.70;;;;;;;20.68;81.70;100783.16;5012745;28;20532;-53
2022/05/17 06:41:38;;;;;;;0.90;0.90;;;;;;;20.81;81.46;100784.13;5012242;28;20452;-52
2022/05/17 06:44:06;;;;;;;1.50;1.40;;;;;;;21.04;80.04;100789.91;4995107;28;20472;-52
2022/05/17 06:46:33;;;;;;;2.50;2.30;;;;;;;20.99;80.92;100791.06;5012607;28;20491;-52
2022/05/17 06:49:00;;;;;;;0.50;0.33;;;;;;;20.39;81.92;100785.78;5012429;28;20452;-52
2022/05/17 06:51:26;;;;;;;0.43;0.27;;;;;;;20.68;81.72;100778.59;5012296;28;20506;-53
2022/05/17 06:53:53;;;;;;;0.80;0.50;;;;;;;20.40;83.70;100787.53;5012507;28;20472;-52
2022/05/17 06:56:20;;;;;;;0.50;0.40;;;;;;;20.45;82.96;100791.84;5012333;28;20495;-52
2022/05/17 06:58:46;;;;;;;1.70;1.70;;;;;;;20.62;81.53;100792.53;5012298;28;20879;-52
2022/05/17 07:01:13;;;;;;;0.40;0.20;;;;;;;20.27;82.70;100791.06;5006753;28;20448;-52
2022/05/17 07:03:42;;;;;;;0.70;0.50;;;;;;;20.91;81.77;100793.38;5012145;28;20526;-52
2022/05/17 07:06:10;;;;;;;0.50;0.50;;;;;;;20.96;80.71;100788.53;5012259;28;20489;-53
2022/05/17 07:08:36;;;;;;;1.17;1.10;;;;;;;21.22;79.52;100786.88;5012405;28;20453;-53
2022/05/17 07:13:48;;;;;;;0.87;0.87;;;;;;;21.44;79.21;100788.22;5012034;28;20472;-52
2022/05/17 07:16:15;;;;;;;0.50;0.40;;;;;;;21.41;77.88;100793.84;5008713;28;20458;-52
2022/05/17 07:18:42;;;;;;;0.77;0.77;;;;;;;21.43;74.98;100789.19;5010973;28;20457;-52
2022/05/17 07:21:11;;;;;;;0.40;0.20;;;;;;;21.40;74.98;100795.69;5005287;28;20797;-52
2022/05/17 07:23:38;;;;;;;0.50;0.30;;;;;;;21.66;75.93;100788.53;5001932;28;20465;-52
2022/05/17 07:26:05;;;;;;;0.50;0.50;;;;;;;21.70;75.49;100800.91;5005013;28;20476;-52
2022/05/17 07:28:32;;;;;;;1.47;1.37;;;;;;;21.93;75.50;100784.94;5012037;28;20949;-53
2022/05/17 07:30:59;;;;;;;0.40;0.30;;;;;;;21.33;76.62;100793.47;5011971;28;20962;-53
2022/05/17 07:33:26;;;;;;;0.50;0.40;;;;;;;21.82;76.08;100793.78;5008494;28;21017;-52
2022/05/17 07:35:53;;;;;;;0.40;0.30;;;;;;;21.59;75.98;100801.59;5012119;28;20503;-56
2022/05/17 07:38:20;;;;;;;0.50;0.30;;;;;;;22.10;75.41;100795.53;5010745;28;20528;-52
2022/05/17 07:40:49;;;;;;;0.40;0.30;;;;;;;22.06;73.62;100797.56;5009184;28;20941;-53
2022/05/17 07:43:16;;;;;;;8.13;1.90;;;;;;;21.73;74.94;100797.97;5015938;28;20456;-52
2022/05/17 07:45:44;;;;;;;0.67;0.67;;;;;;;22.30;73.49;100804.97;5010288;28;20487;-53
2022/05/17 07:48:11;;;;;;;2.40;1.80;;;;;;;22.31;73.37;100798.59;5013952;28;20445;-54
2022/05/17 07:50:40;;;;;;;0.50;0.40;;;;;;;22.51;70.71;100803.50;5012974;28;20530;-53
2022/05/17 07:53:09;;;;;;;20.03;2.93;;;;;;;22.61;70.60;100801.84;4996483;28;20522;-53
2022/05/17 07:55:38;;;;;;;0.40;0.30;;;;;;;22.51;71.64;100811.63;5015267;28;20840;-53
2022/05/17 07:58:06;;;;;;;0.50;0.30;;;;;;;22.90;71.01;100807.97;5015453;28;20496;-53
2022/05/17 08:00:33;;;;;;;0.50;0.30;;;;;;;22.87;70.09;100815.44;5015516;28;20460;-53
2022/05/17 08:03:00;;;;;;;1.37;1.27;;;;;;;22.98;70.11;100810.13;5015506;28;20479;-54
2022/05/17 08:05:29;;;;;;;0.40;0.30;;;;;;;23.23;68.89;100810.09;4998018;28;20453;-53
2022/05/17 08:07:56;;;;;;;0.43;0.30;;;;;;;23.05;69.03;100806.88;5015187;28;20440;-53
2022/05/17 08:10:22;;;;;;;0.70;0.70;;;;;;;23.04;67.57;100810.56;5014922;28;20996;-53
2022/05/17 08:12:50;;;;;;;1.60;0.80;;;;;;;23.17;68.01;100812.38;5015163;28;20452;-53
2022/05/17 08:15:18;;;;;;;2.63;0.43;;;;;;;23.31;68.15;100804.97;5015354;28;20834;-53
2022/05/17 08:17:45;;;;;;;1.00;0.90;;;;;;;23.40;67.48;100810.69;5010262;28;20499;-53
2022/05/17 08:20:12;;;;;;;0.40;0.30;;;;;;;23.40;67.26;100799.84;5015250;28;20428;-53
2022/05/17 08:22:40;;;;;;;0.40;0.30;;;;;;;23.69;67.48;100801.28;5015338;28;20452;-55
2022/05/17 08:27:55;;;;;;;0.40;0.20;;;;;;;23.50;66.44;100799.03;5015057;28;20451;-53
2022/05/17 08:30:24;;;;;;;0.50;0.30;;;;;;;23.90;66.61;100794.22;4997938;28;20503;-53
2022/05/17 08:33:16;;;;;;;0.40;0.20;;;;;;;24.02;66.07;100795.16;5015114;28;20449;-53
2022/05/17 08:36:00;;;;;;;0.47;0.30;;;;;;;24.14;63.52;100802.34;5014839;28;20964;-53
2022/05/17 08:38:32;;;;;;;0.47;0.30;;;;;;;23.89;62.09;100797.06;5014778;28;20500;-54
2022/05/17 08:41:17;;;;;;;0.40;0.30;;;;;;;23.98;60.42;100792.75;5014584;28;20431;-53
2022/05/17 08:43:54;;;;;;;0.53;0.40;;;;;;;23.92;61.79;100792.25;5013586;28;20468;-53
2022/05/17 08:46:37;;;;;;;0.40;0.20;;;;;;;24.16;61.38;100791.38;5014649;28;20510;-53
2022/05/17 08:49:29;;;;;;;0.40;0.30;;;;;;;24.51;58.30;100791.34;5014731;28;20823;-54
2022/05/17 08:52:17;;;;;;;3.43;1.43;;;;;;;24.77;58.31;100798.31;5013700;28;20796;-53
2022/05/17 08:55:04;;;;;;;0.57;0.50;;;;;;;24.87;58.50;100781.25;5003019;28;20491;-53
2022/05/17 08:57:53;;;;;;;0.40;0.27;;;;;;;24.35;59.73;100783.53;5014550;28;20575;-53
2022/05/17 09:00:20;;;;;;;0.40;0.20;;;;;;;24.67;56.96;100786.47;5014394;28;20506;-54
2022/05/17 09:03:25;;;;;;;0.40;0.20;;;;;;;24.77;56.89;100778.41;5014229;28;20511;-53
2022/05/17 09:05:57;;;;;;;0.40;0.20;;;;;;;25.08;56.52;100774.09;4992196;28;20518;-53
2022/05/17 09:08:38;;;;;;;0.50;0.30;;;;;;;24.88;56.61;100772.13;5014036;28;20958;-53
2022/05/17 09:11:18;;;;;;;0.60;0.37;;;;;;;25.07;55.52;100772.38;5014040;28;20441;-53
2022/05/17 09:13:54;;;;;;;0.40;0.20;;;;;;;25.38;54.38;100768.03;5014081;28;20515;-53
2022/05/17 09:16:38;;;;;;;1.57;0.50;;;;;;;25.46;53.91;100773.69;5009419;28;20815;-53
2022/05/17 09:19:05;;;;;;;0.40;0.30;;;;;;;25.29;55.40;100764.19;5014095;28;20448;-53
2022/05/17 09:21:36;;;;;;;5.03;1.07;;;;;;;25.32;53.17;100763.94;5013697;28;20507;-53
2022/05/17 09:24:10;;;;;;;0.40;0.30;;;;;;;25.62;54.29;100763.22;5014243;28;20913;-55
2022/05/17 09:26:37;;;;;;;0.40;0.30;;;;;;;25.66;54.08;100761.13;5013769;28;20466;-53
2022/05/17 09:29:13;;;;;;;1.13;1.13;;;;;;;25.41;54.06;100751.44;5013990;28;20427;-53
2022/05/17 09:31:49;;;;;;;0.40;0.20;;;;;;;25.31;53.33;100747.72;5013863;28;20419;-53
2022/05/17 09:34:29;;;;;;;0.40;0.30;;;;;;;26.06;52.32;100753.19;5013834;28;20466;-53
2022/05/17 09:36:57;;;;;;;0.50;0.30;;;;;;;25.64;52.31;100753.09;5028691;22;20478;-57
2022/05/17 09:39:29;;;;;;;0.40;0.20;;;;;;;25.04;53.78;100754.44;5013746;28;20473;-57
2022/05/17 09:42:00;;;;;;;0.40;0.20;;;;;;;25.99;51.98;100750.13;5013600;28;20483;-58
2022/05/17 09:44:42;;;;;;;0.50;0.30;;;;;;;26.21;49.80;100753.72;5013599;28;20416;-57
2022/05/17 09:47:25;;;;;;;0.40;0.30;;;;;;;26.18;49.68;100757.59;5013600;28;20443;-57
2022/05/17 09:52:46;;;;;;;0.47;0.30;;;;;;;26.64;48.22;100748.13;5013261;28;20907;-58
2022/05/17 09:55:22;;;;;;;0.40;0.27;;;;;;;26.53;47.03;100759.97;5013241;28;20972;-57
2022/05/17 09:58:00;;;;;;;0.40;0.30;;;;;;;27.01;46.17;100753.06;5013309;28;20996;-57
2022/05/17 10:00:31;;;;;;;0.40;0.30;;;;;;;26.78;46.59;100750.50;5013283;28;20903;-57
2022/05/17 10:03:03;;;;;;;0.40;0.30;;;;;;;27.39;45.06;100755.88;5013109;28;20924;-57
2022/05/17 10:05:36;;;;;;;0.87;0.87;;;;;;;27.08;45.92;100752.38;5013276;28;20472;-58
2022/05/17 10:08:28;;;;;;;0.73;0.70;;;;;;;27.28;45.43;100758.75;5013412;28;20497;-58
2022/05/17 10:11:07;;;;;;;0.40;0.30;;;;;;;26.23;46.10;100752.59;4982617;28;20448;-57
2022/05/17 10:13:45;;;;;;;0.40;0.30;;;;;;;26.31;45.48;100751.03;5012930;28;20838;-57
2022/05/17 10:16:22;;;;;;;0.50;0.43;;;;;;;26.10;46.06;100751.94;5013220;28;20438;-58
2022/05/17 10:19:04;;;;;;;0.40;0.30;;;;;;;26.14;44.75;100747.94;5013061;28;20492;-57
2022/05/17 10:21:49;;;;;;;0.40;0.30;;;;;;;26.43;44.24;100741.84;5012903;28;20423;-58
2022/05/17 10:24:44;;;;;;;0.40;0.30;;;;;;;26.21;45.30;100735.50;5013053;28;20506;-57
2022/05/17 10:27:14;;;;;;;0.40;0.23;;;;;;;26.67;45.66;100742.41;5001428;28;20871;-57
2022/05/17 10:29:46;;;;;;;0.40;0.27;;;;;;;26.90;45.69;100740.34;5013021;28;20448;-58
2022/05/17 10:32:27;;;;;;;0.40;0.30;;;;;;;26.67;44.60;100731.50;5012950;28;20900;-57
2022/05/17 10:35:36;;;;;;;0.40;0.30;;;;;;;26.78;43.40;100725.94;4985283;28;20513;-57
2022/05/17 10:38:13;;;;;;;0.40;0.30;;;;;;;26.66;44.72;100729.75;5012433;28;20562;-57
2022/05/17 10:40:46;;;;;;;0.40;0.30;;;;;;;26.79;45.04;100735.84;5011290;28;20422;-57
2022/05/17 10:43:20;;;;;;;0.40;0.30;;;;;;;26.71;44.68;100737.53;5000248;28;20484;-57
2022/05/17 10:46:00;;;;;;;0.40;0.30;;;;;;;26.79;43.48;100737.72;5012551;28;20527;-57
2022/05/17 10:48:33;;;;;;;0.50;0.40;;;;;;;26.72;43.93;100731.06;5012609;28;20961;-57
2022/05/17 10:51:18;;;;;;;1.07;0.60;;;;;;;27.23;42.07;100733.72;5011431;28;20466;-57
2022/05/17 10:53:47;;;;;;;0.40;0.27;;;;;;;27.14;42.06;100727.25;5012722;28;20419;-56
2022/05/17 10:56:51;;;;;;;0.40;0.20;;;;;;;26.45;42.89;100723.47;5012788;28;20478;-56
2022/05/17 10:59:29;;;;;;;0.40;0.20;;;;;;;25.89;43.87;100727.38;5011255;28;20526;-55
2022/05/17 11:02:24;;;;;;;0.40;0.20;;;;;;;26.48;42.42;100720.50;5012721;28;20513;-57
2022/05/17 11:05:10;;;;;;;0.40;0.27;;;;;;;26.38;42.34;100708.66;5012385;28;20430;-58
2022/05/17 11:07:46;;;;;;;0.40;0.30;;;;;;;26.59;42.22;100712.22;5004269;28;20448;-58
2022/05/17 11:10:30;;;;;;;1.47;1.47;;;;;;;27.02;42.27;100705.69;5012481;28;20510;-57
2022/05/17 11:13:11;;;;;;;0.67;0.67;;;;;;;26.86;41.35;100704.31;5012579;28;20484;-57
2022/05/17 11:15:43;;;;;;;0.40;0.30;;;;;;;27.28;41.96;100703.28;5015658;28;20958;-57
2022/05/17 11:18:26;;;;;;;0.40;0.20;;;;;;;27.20;41.56;100705.84;5016598;28;20982;-58
2022/05/17 11:20:57;;;;;;;0.40;0.30;;;;;;;27.23;40.71;100702.84;5016701;28;20504;-58
2022/05/17 11:23:42;;;;;;;0.50;0.40;;;;;;;27.57;40.05;100700.59;5016455;28;20470;-57
2022/05/17 11:26:24;;;;;;;0.40;0.20;;;;;;;27.77;39.85;100701.47;5014857;28;20439;-58
2022/05/17 11:28:57;;;;;;;0.40;0.30;;;;;;;26.72;40.60;100696.47;5005628;28;20419;-57
2022/05/17 11:31:29;;;;;;;0.40;0.30;;;;;;;26.34;41.20;100688.97;5016316;28;20452;-57
2022/05/17 11:34:27;;;;;;;0.40;0.30;;;;;;;26.50;42.46;100693.94;5016316;28;20427;-57
2022/05/17 11:37:03;;;;;;;0.40;0.30;;;;;;;27.11;41.97;100693.91;5004745;28;20455;-57
2022/05/17 11:39:41;;;;;;;0.40;0.30;;;;;;;26.75;41.97;100692.63;5016054;28;20467;-57
2022/05/17 11:42:09;;;;;;;0.40;0.20;;;;;;;26.76;41.17;100687.03;5016079;28;20475;-57
2022/05/17 11:44:44;;;;;;;0.40;0.30;;;;;;;26.99;40.15;100682.19;5016069;28;20493;-57
2022/05/17 11:47:41;;;;;;;0.40;0.30;;;;;;;27.11;41.47;100674.78;5016204;28;20430;-58
2022/05/17 11:50:18;;;;;;;0.40;0.30;;;;;;;27.07;40.93;100673.34;4954104;28;20429;-58